SCCY/GXQ METAR and TAF weather

Enter ICAO airport designator
Station Type Date Time Source
SCCY METAR 2021/04/13 00:00 UTC NOAA

SCCY 130000Z 21010KT 150V290 9999 FEW033 14/05 Q1013


Station Type Date Time Source
SCCY Decoded METAR 2021/04/13 00:00 UTC NOAA

Coyhaique, Chile (SCCY) 45-35S 072-07W
Apr 12, 2021 - 08:00 PM EDT / 2021.04.13 0000 UTC
Wind: from the SSW (210 degrees) at 12 MPH (10 KT) (direction variable):0
Visibility: greater than 7 mile(s):0
Sky conditions: mostly clear
Temperature: 57 F (14 C)
Dew Point: 41 F (5 C)
Relative Humidity: 54%
Pressure (altimeter): 29.91 in. Hg (1013 hPa)
ob: SCCY 130000Z 21010KT 150V290 9999 FEW033 14/05 Q1013
cycle: 0

Station Type Date Time Source
SCCY TAF 2021/04/12 12:33 UTC NOAA

TAF SCCY 121116Z 1212/1224 01005KT 8000 SHRA FEW027 OVC044 TN11/1212Z TX14/1219Z
BECMG 1214/1216 9999 NSW SCT040
BECMG 1218/1220 24010KT

Example: see airport list